sensor_id;sensor_type;location;lat;lon;timestamp;pressure;altitude;pressure_sealevel;temperature;humidity
54994;BME280;40891;47.242;8.648;2023-02-22T00:00:25;96264.34;;;7.04;81.60
54994;BME280;40891;47.242;8.648;2023-02-22T00:03:08;96263.22;;;7.02;82.12
54994;BME280;40891;47.242;8.648;2023-02-22T00:05:35;96262.88;;;7.00;82.96
54994;BME280;40891;47.242;8.648;2023-02-22T00:08:00;96263.22;;;7.02;82.75
54994;BME280;40891;47.242;8.648;2023-02-22T00:10:26;96266.66;;;7.06;83.16
54994;BME280;40891;47.242;8.648;2023-02-22T00:12:53;96272.34;;;6.99;84.37
54994;BME280;40891;47.242;8.648;2023-02-22T00:15:21;96276.69;;;7.00;83.66
54994;BME280;40891;47.242;8.648;2023-02-22T00:17:47;96273.59;;;6.98;83.75
54994;BME280;40891;47.242;8.648;2023-02-22T00:20:14;96272.13;;;6.93;83.13
54994;BME280;40891;47.242;8.648;2023-02-22T00:22:43;96275.63;;;6.94;84.61
54994;BME280;40891;47.242;8.648;2023-02-22T00:25:12;96275.63;;;6.94;84.32
54994;BME280;40891;47.242;8.648;2023-02-22T00:27:37;96273.59;;;6.98;85.02
54994;BME280;40891;47.242;8.648;2023-02-22T00:30:04;96272.19;;;7.06;84.49
54994;BME280;40891;47.242;8.648;2023-02-22T00:32:30;96270.31;;;7.03;83.81
54994;BME280;40891;47.242;8.648;2023-02-22T00:34:56;96271.22;;;6.96;82.71
54994;BME280;40891;47.242;8.648;2023-02-22T00:37:21;96267.50;;;6.86;83.77
54994;BME280;40891;47.242;8.648;2023-02-22T00:39:47;96267.44;;;6.74;85.35
54994;BME280;40891;47.242;8.648;2023-02-22T00:42:14;96263.22;;;6.69;85.65
54994;BME280;40891;47.242;8.648;2023-02-22T00:44:40;96267.22;;;6.65;85.88
54994;BME280;40891;47.242;8.648;2023-02-22T00:47:05;96264.56;;;6.61;86.21
54994;BME280;40891;47.242;8.648;2023-02-22T00:49:31;96265.00;;;6.60;86.62
54994;BME280;40891;47.242;8.648;2023-02-22T00:51:56;96267.66;;;6.47;85.30
54994;BME280;40891;47.242;8.648;2023-02-22T00:54:21;96278.34;;;6.45;86.82
54994;BME280;40891;47.242;8.648;2023-02-22T00:56:47;96263.84;;;6.41;86.33
54994;BME280;40891;47.242;8.648;2023-02-22T00:59:14;96259.97;;;6.39;87.07
54994;BME280;40891;47.242;8.648;2023-02-22T01:01:40;96258.13;;;6.32;86.32
54994;BME280;40891;47.242;8.648;2023-02-22T01:04:07;96262.59;;;6.26;86.64
54994;BME280;40891;47.242;8.648;2023-02-22T01:06:33;96260.28;;;6.25;87.95
54994;BME280;40891;47.242;8.648;2023-02-22T01:08:58;96253.19;;;6.24;87.33
54994;BME280;40891;47.242;8.648;2023-02-22T01:11:23;96258.28;;;6.25;86.99
54994;BME280;40891;47.242;8.648;2023-02-22T01:13:49;96251.56;;;6.26;87.00
54994;BME280;40891;47.242;8.648;2023-02-22T01:16:18;96261.47;;;6.24;87.69
54994;BME280;40891;47.242;8.648;2023-02-22T01:18:44;96247.31;;;6.22;86.99
54994;BME280;40891;47.242;8.648;2023-02-22T01:21:09;96246.88;;;6.23;86.52
54994;BME280;40891;47.242;8.648;2023-02-22T01:23:34;96244.47;;;6.25;86.40
54994;BME280;40891;47.242;8.648;2023-02-22T01:26:00;96255.59;;;6.22;86.10
54994;BME280;40891;47.242;8.648;2023-02-22T01:28:26;96242.94;;;6.24;86.90
54994;BME280;40891;47.242;8.648;2023-02-22T01:30:53;96249.25;;;6.25;87.17
54994;BME280;40891;47.242;8.648;2023-02-22T01:33:20;96247.56;;;6.27;87.08
54994;BME280;40891;47.242;8.648;2023-02-22T01:35:45;96236.47;;;6.31;87.10
54994;BME280;40891;47.242;8.648;2023-02-22T01:38:11;96241.56;;;6.32;86.64
54994;BME280;40891;47.242;8.648;2023-02-22T01:40:38;96237.94;;;6.35;86.73
54994;BME280;40891;47.242;8.648;2023-02-22T01:45:48;96237.25;;;6.31;86.80
54994;BME280;40891;47.242;8.648;2023-02-22T01:48:23;96231.63;;;6.35;85.71
54994;BME280;40891;47.242;8.648;2023-02-22T01:50:54;96233.28;;;6.32;85.70
54994;BME280;40891;47.242;8.648;2023-02-22T01:53:24;96231.41;;;6.29;84.92
54994;BME280;40891;47.242;8.648;2023-02-22T01:55:52;96227.91;;;6.25;84.82
54994;BME280;40891;47.242;8.648;2023-02-22T01:58:19;96227.66;;;6.20;84.82
54994;BME280;40891;47.242;8.648;2023-02-22T02:00:46;96227.28;;;6.17;83.72
54994;BME280;40891;47.242;8.648;2023-02-22T02:03:16;96228.94;;;6.15;83.87
54994;BME280;40891;47.242;8.648;2023-02-22T02:05:43;96225.91;;;6.09;84.64
54994;BME280;40891;47.242;8.648;2023-02-22T02:08:30;96228.16;;;6.14;84.93
54994;BME280;40891;47.242;8.648;2023-02-22T02:11:01;96223.50;;;6.11;83.90
54994;BME280;40891;47.242;8.648;2023-02-22T02:13:27;96225.13;;;6.09;84.28
54994;BME280;40891;47.242;8.648;2023-02-22T02:15:53;96228.38;;;6.04;85.21
54994;BME280;40891;47.242;8.648;2023-02-22T02:18:19;96223.94;;;5.90;85.43
54994;BME280;40891;47.242;8.648;2023-02-22T02:21:09;96219.91;;;5.95;85.40
54994;BME280;40891;47.242;8.648;2023-02-22T02:23:54;96220.84;;;5.88;84.72
54994;BME280;40891;47.242;8.648;2023-02-22T02:32:23;96224.13;;;5.80;85.78
54994;BME280;40891;47.242;8.648;2023-02-22T02:35:14;96215.44;;;5.81;85.60
54994;BME280;40891;47.242;8.648;2023-02-22T02:45:54;96205.25;;;5.78;85.02
54994;BME280;40891;47.242;8.648;2023-02-22T02:48:25;96213.97;;;5.77;85.73
54994;BME280;40891;47.242;8.648;2023-02-22T02:50:52;96206.03;;;5.79;85.74
54994;BME280;40891;47.242;8.648;2023-02-22T02:53:26;96206.38;;;5.81;85.10
54994;BME280;40891;47.242;8.648;2023-02-22T02:55:57;96205.53;;;5.84;84.68
54994;BME280;40891;47.242;8.648;2023-02-22T02:58:23;96207.50;;;5.83;84.44
54994;BME280;40891;47.242;8.648;2023-02-22T03:00:52;96200.03;;;5.84;84.83
54994;BME280;40891;47.242;8.648;2023-02-22T03:03:50;96208.22;;;5.87;84.28
54994;BME280;40891;47.242;8.648;2023-02-22T03:14:53;96187.91;;;5.78;83.45
54994;BME280;40891;47.242;8.648;2023-02-22T03:17:37;96196.81;;;5.66;83.85
54994;BME280;40891;47.242;8.648;2023-02-22T03:20:11;96187.44;;;5.63;84.21
54994;BME280;40891;47.242;8.648;2023-02-22T03:22:44;96187.03;;;5.65;83.21
54994;BME280;40891;47.242;8.648;2023-02-22T03:25:20;96189.09;;;5.61;84.42
54994;BME280;40891;47.242;8.648;2023-02-22T03:27:52;96189.22;;;5.54;84.18
54994;BME280;40891;47.242;8.648;2023-02-22T03:30:34;96187.78;;;5.45;84.73
54994;BME280;40891;47.242;8.648;2023-02-22T03:33:04;96179.66;;;5.38;85.52
54994;BME280;40891;47.242;8.648;2023-02-22T03:35:35;96191.19;;;5.33;85.54
54994;BME280;40891;47.242;8.648;2023-02-22T03:38:06;96182.22;;;5.29;85.77
54994;BME280;40891;47.242;8.648;2023-02-22T03:40:36;96186.50;;;5.30;86.40
54994;BME280;40891;47.242;8.648;2023-02-22T03:43:06;96186.16;;;5.28;85.65
54994;BME280;40891;47.242;8.648;2023-02-22T03:45:33;96185.81;;;5.26;86.59
54994;BME280;40891;47.242;8.648;2023-02-22T03:48:10;96193.25;;;5.29;86.95
54994;BME280;40891;47.242;8.648;2023-02-22T03:50:38;96188.06;;;5.31;87.92
54994;BME280;40891;47.242;8.648;2023-02-22T03:53:04;96186.50;;;5.30;88.06
54994;BME280;40891;47.242;8.648;2023-02-22T03:55:32;96192.88;;;5.27;88.24
54994;BME280;40891;47.242;8.648;2023-02-22T03:58:00;96194.16;;;5.23;89.21
54994;BME280;40891;47.242;8.648;2023-02-22T04:00:29;96191.81;;;5.21;89.63
54994;BME280;40891;47.242;8.648;2023-02-22T04:02:55;96185.16;;;5.19;91.02
54994;BME280;40891;47.242;8.648;2023-02-22T04:05:20;96183.63;;;5.18;91.40
54994;BME280;40891;47.242;8.648;2023-02-22T04:07:46;96189.97;;;5.15;90.96
54994;BME280;40891;47.242;8.648;2023-02-22T04:10:12;96186.06;;;5.12;91.27
54994;BME280;40891;47.242;8.648;2023-02-22T04:12:39;96196.41;;;5.08;91.06
54994;BME280;40891;47.242;8.648;2023-02-22T04:15:06;96185.72;;;5.10;91.37
54994;BME280;40891;47.242;8.648;2023-02-22T04:17:32;96192.41;;;5.09;90.62
54994;BME280;40891;47.242;8.648;2023-02-22T04:19:57;96183.38;;;5.09;91.06
54994;BME280;40891;47.242;8.648;2023-02-22T04:22:23;96187.66;;;5.13;91.04
54994;BME280;40891;47.242;8.648;2023-02-22T04:24:48;96183.63;;;5.18;90.52
54994;BME280;40891;47.242;8.648;2023-02-22T04:27:14;96185.94;;;5.19;90.19
54994;BME280;40891;47.242;8.648;2023-02-22T04:29:40;96187.91;;;5.19;89.10
54994;BME280;40891;47.242;8.648;2023-02-22T04:32:06;96186.56;;;5.07;89.45
54994;BME280;40891;47.242;8.648;2023-02-22T04:34:31;96181.88;;;5.04;89.89
54994;BME280;40891;47.242;8.648;2023-02-22T04:36:57;96185.50;;;5.01;90.63
54994;BME280;40891;47.242;8.648;2023-02-22T04:39:22;96182.41;;;4.99;89.90
54994;BME280;40891;47.242;8.648;2023-02-22T04:41:47;96189.09;;;4.98;88.28
54994;BME280;40891;47.242;8.648;2023-02-22T04:44:13;96194.59;;;4.98;88.67
54994;BME280;40891;47.242;8.648;2023-02-22T04:46:38;96187.16;;;4.95;88.96
54994;BME280;40891;47.242;8.648;2023-02-22T04:49:04;96185.97;;;4.96;89.21
54994;BME280;40891;47.242;8.648;2023-02-22T04:51:29;96199.31;;;4.98;89.35
54994;BME280;40891;47.242;8.648;2023-02-22T04:53:54;96196.34;;;4.89;89.89
54994;BME280;40891;47.242;8.648;2023-02-22T04:56:20;96192.88;;;4.85;91.45
54994;BME280;40891;47.242;8.648;2023-02-22T04:58:45;96189.69;;;4.86;92.24
54994;BME280;40891;47.242;8.648;2023-02-22T05:01:13;96193.63;;;4.85;92.82
54994;BME280;40891;47.242;8.648;2023-02-22T05:03:38;96188.22;;;4.81;92.38
54994;BME280;40891;47.242;8.648;2023-02-22T05:06:04;96187.53;;;4.74;92.91
54994;BME280;40891;47.242;8.648;2023-02-22T05:08:29;96186.84;;;4.70;92.90
54994;BME280;40891;47.242;8.648;2023-02-22T05:10:54;96187.25;;;4.68;93.03
54994;BME280;40891;47.242;8.648;2023-02-22T05:13:20;96193.59;;;4.65;92.23
54994;BME280;40891;47.242;8.648;2023-02-22T05:15:45;96192.38;;;4.66;92.90
54994;BME280;40891;47.242;8.648;2023-02-22T05:18:12;96189.22;;;4.68;92.71
54994;BME280;40891;47.242;8.648;2023-02-22T05:20:37;96193.16;;;4.67;92.68
54994;BME280;40891;47.242;8.648;2023-02-22T05:23:03;96181.31;;;4.70;91.55
54994;BME280;40891;47.242;8.648;2023-02-22T05:25:30;96190.78;;;4.69;91.65
54994;BME280;40891;47.242;8.648;2023-02-22T05:28:01;96185.25;;;4.69;92.03
54994;BME280;40891;47.242;8.648;2023-02-22T05:30:30;96185.22;;;4.72;91.63
54994;BME280;40891;47.242;8.648;2023-02-22T05:32:56;96182.03;;;4.74;92.34
54994;BME280;40891;47.242;8.648;2023-02-22T05:35:22;96178.09;;;4.75;92.88
54994;BME280;40891;47.242;8.648;2023-02-22T05:37:47;96185.94;;;4.76;91.78
54994;BME280;40891;47.242;8.648;2023-02-22T05:40:16;96175.75;;;4.73;93.42
54994;BME280;40891;47.242;8.648;2023-02-22T05:42:42;96180.84;;;4.75;94.11
54994;BME280;40891;47.242;8.648;2023-02-22T05:45:07;96176.88;;;4.76;94.09
54994;BME280;40891;47.242;8.648;2023-02-22T05:47:33;96174.13;;;4.76;94.00
54994;BME280;40891;47.242;8.648;2023-02-22T05:49:58;96181.91;;;4.81;94.38
54994;BME280;40891;47.242;8.648;2023-02-22T05:52:23;96181.91;;;4.81;93.81
54994;BME280;40891;47.242;8.648;2023-02-22T05:54:49;96184.25;;;4.82;93.89
54994;BME280;40891;47.242;8.648;2023-02-22T05:57:15;96182.22;;;4.87;94.30
54994;BME280;40891;47.242;8.648;2023-02-22T05:59:40;96184.19;;;4.86;93.89
54994;BME280;40891;47.242;8.648;2023-02-22T06:02:07;96183.34;;;4.89;94.77
54994;BME280;40891;47.242;8.648;2023-02-22T06:04:32;96174.34;;;4.85;95.14
54994;BME280;40891;47.242;8.648;2023-02-22T06:06:58;96173.25;;;4.82;96.06
54994;BME280;40891;47.242;8.648;2023-02-22T06:09:23;96169.63;;;4.86;94.98
54994;BME280;40891;47.242;8.648;2023-02-22T06:11:48;96179.09;;;4.85;91.61
54994;BME280;40891;47.242;8.648;2023-02-22T06:14:14;96176.34;;;4.85;89.14
54994;BME280;40891;47.242;8.648;2023-02-22T06:16:39;96179.38;;;4.90;88.09
54994;BME280;40891;47.242;8.648;2023-02-22T06:19:04;96182.13;;;4.90;88.17
54994;BME280;40891;47.242;8.648;2023-02-22T06:21:30;96181.44;;;4.86;88.66
54994;BME280;40891;47.242;8.648;2023-02-22T06:23:55;96176.34;;;4.85;88.29
54994;BME280;40891;47.242;8.648;2023-02-22T06:26:21;96181.00;;;4.88;88.56
54994;BME280;40891;47.242;8.648;2023-02-22T06:28:47;96187.28;;;4.88;89.61
54994;BME280;40891;47.242;8.648;2023-02-22T06:31:13;96191.19;;;4.91;88.76
54994;BME280;40891;47.242;8.648;2023-02-22T06:33:38;96178.56;;;4.93;88.58
54994;BME280;40891;47.242;8.648;2023-02-22T06:36:04;96186.03;;;4.93;89.60
54994;BME280;40891;47.242;8.648;2023-02-22T06:38:30;96189.13;;;4.95;90.05
54994;BME280;40891;47.242;8.648;2023-02-22T06:40:55;96185.16;;;4.99;90.80
54994;BME280;40891;47.242;8.648;2023-02-22T06:43:21;96188.59;;;5.03;91.05
54994;BME280;40891;47.242;8.648;2023-02-22T06:45:48;96188.47;;;5.10;94.44
54994;BME280;40891;47.242;8.648;2023-02-22T06:48:13;96187.69;;;5.10;92.77
54994;BME280;40891;47.242;8.648;2023-02-22T06:50:39;96197.09;;;5.12;93.11
54994;BME280;40891;47.242;8.648;2023-02-22T06:53:04;96190.63;;;5.22;93.69
54994;BME280;40891;47.242;8.648;2023-02-22T06:55:31;96199.22;;;5.24;94.22
54994;BME280;40891;47.242;8.648;2023-02-22T06:57:58;96190.53;;;5.26;93.50
54994;BME280;40891;47.242;8.648;2023-02-22T07:00:25;96197.53;;;5.30;94.86
54994;BME280;40891;47.242;8.648;2023-02-22T07:02:52;96196.56;;;5.40;94.39
54994;BME280;40891;47.242;8.648;2023-02-22T07:05:19;96199.19;;;5.47;94.17
54994;BME280;40891;47.242;8.648;2023-02-22T07:07:45;96201.09;;;5.50;95.59
54994;BME280;40891;47.242;8.648;2023-02-22T07:10:32;96195.78;;;5.60;95.51
54994;BME280;40891;47.242;8.648;2023-02-22T07:12:58;96199.81;;;5.75;94.87
54994;BME280;40891;47.242;8.648;2023-02-22T07:15:24;96200.50;;;5.79;94.53
54994;BME280;40891;47.242;8.648;2023-02-22T07:17:51;96199.47;;;5.92;94.83
54994;BME280;40891;47.242;8.648;2023-02-22T07:20:17;96197.69;;;6.02;94.14
54994;BME280;40891;47.242;8.648;2023-02-22T07:22:44;96194.31;;;6.10;93.42
54994;BME280;40891;47.242;8.648;2023-02-22T07:25:10;96194.94;;;6.18;93.10
54994;BME280;40891;47.242;8.648;2023-02-22T07:27:36;96188.09;;;6.42;92.90
54994;BME280;40891;47.242;8.648;2023-02-22T07:30:04;96187.41;;;6.54;92.90
54994;BME280;40891;47.242;8.648;2023-02-22T07:32:29;96191.81;;;6.68;91.25
54994;BME280;40891;47.242;8.648;2023-02-22T07:34:54;96184.03;;;6.79;91.11
54994;BME280;40891;47.242;8.648;2023-02-22T07:37:20;96178.34;;;6.86;90.78
54994;BME280;40891;47.242;8.648;2023-02-22T07:39:45;96177.78;;;6.91;90.02
54994;BME280;40891;47.242;8.648;2023-02-22T07:42:10;96179.88;;;6.87;91.30
54994;BME280;40891;47.242;8.648;2023-02-22T07:44:36;96183.25;;;6.95;90.97
54994;BME280;40891;47.242;8.648;2023-02-22T07:47:01;96187.91;;;6.98;91.22
54994;BME280;40891;47.242;8.648;2023-02-22T07:49:27;96179.25;;;7.12;89.88
54994;BME280;40891;47.242;8.648;2023-02-22T07:51:52;96179.88;;;7.32;89.26
54994;BME280;40891;47.242;8.648;2023-02-22T07:54:18;96178.72;;;7.87;87.46
54994;BME280;40891;47.242;8.648;2023-02-22T07:56:44;96170.66;;;8.80;83.67
54994;BME280;40891;47.242;8.648;2023-02-22T07:59:10;96167.47;;;9.72;77.66
54994;BME280;40891;47.242;8.648;2023-02-22T08:01:35;96157.66;;;10.33;73.57
54994;BME280;40891;47.242;8.648;2023-02-22T08:04:01;96159.25;;;10.91;69.79
54994;BME280;40891;47.242;8.648;2023-02-22T08:06:26;96151.56;;;11.32;67.73
54994;BME280;40891;47.242;8.648;2023-02-22T08:08:52;96158.22;;;11.34;66.34
54994;BME280;40891;47.242;8.648;2023-02-22T08:11:17;96151.88;;;11.34;66.83
54994;BME280;40891;47.242;8.648;2023-02-22T08:13:43;96153.44;;;11.17;68.02
54994;BME280;40891;47.242;8.648;2023-02-22T08:16:08;96155.91;;;11.51;67.26
54994;BME280;40891;47.242;8.648;2023-02-22T08:18:33;96150.34;;;11.87;65.03
54994;BME280;40891;47.242;8.648;2023-02-22T08:20:59;96143.81;;;11.99;63.97
54994;BME280;40891;47.242;8.648;2023-02-22T08:23:25;96155.91;;;11.87;64.97
54994;BME280;40891;47.242;8.648;2023-02-22T08:25:51;96156.22;;;11.17;67.58
54994;BME280;40891;47.242;8.648;2023-02-22T08:28:18;96152.81;;;11.31;67.58
54994;BME280;40891;47.242;8.648;2023-02-22T08:30:45;96147.22;;;11.67;67.93
54994;BME280;40891;47.242;8.648;2023-02-22T08:33:13;96149.78;;;12.25;65.33
54994;BME280;40891;47.242;8.648;2023-02-22T08:35:40;96146.84;;;12.94;63.04
54994;BME280;40891;47.242;8.648;2023-02-22T08:38:07;96141.44;;;13.76;59.67
54994;BME280;40891;47.242;8.648;2023-02-22T08:40:35;96137.16;;;14.83;55.37
54994;BME280;40891;47.242;8.648;2023-02-22T08:43:01;96131.13;;;15.65;52.48
54994;BME280;40891;47.242;8.648;2023-02-22T08:45:27;96119.16;;;16.42;50.53
54994;BME280;40891;47.242;8.648;2023-02-22T08:47:52;96123.84;;;17.29;47.20
54994;BME280;40891;47.242;8.648;2023-02-22T08:50:21;96115.19;;;18.42;44.64
54994;BME280;40891;47.242;8.648;2023-02-22T08:52:52;96113.91;;;19.03;41.12
54994;BME280;40891;47.242;8.648;2023-02-22T08:55:23;96106.25;;;18.76;41.87
54994;BME280;40891;47.242;8.648;2023-02-22T08:57:49;96118.00;;;18.25;43.78
54994;BME280;40891;47.242;8.648;2023-02-22T09:00:16;96124.13;;;18.07;44.57
54994;BME280;40891;47.242;8.648;2023-02-22T09:02:41;96118.81;;;18.70;42.38
54994;BME280;40891;47.242;8.648;2023-02-22T09:05:08;96109.84;;;20.19;40.12
54994;BME280;40891;47.242;8.648;2023-02-22T09:07:33;96098.03;;;20.86;38.03
54994;BME280;40891;47.242;8.648;2023-02-22T09:09:58;96104.03;;;20.77;37.17
54994;BME280;40891;47.242;8.648;2023-02-22T09:12:23;96100.44;;;20.47;37.85
54994;BME280;40891;47.242;8.648;2023-02-22T09:14:49;96098.19;;;20.69;37.85
54994;BME280;40891;47.242;8.648;2023-02-22T09:17:14;96101.00;;;20.99;36.65
54994;BME280;40891;47.242;8.648;2023-02-22T09:19:39;96091.25;;;21.48;36.16
54994;BME280;40891;47.242;8.648;2023-02-22T09:22:05;96098.34;;;21.98;35.25
54994;BME280;40891;47.242;8.648;2023-02-22T09:24:30;96097.75;;;22.05;35.15
54994;BME280;40891;47.242;8.648;2023-02-22T09:26:55;96081.91;;;22.47;33.39
54994;BME280;40891;47.242;8.648;2023-02-22T09:29:25;96085.78;;;22.30;32.97
54994;BME280;40891;47.242;8.648;2023-02-22T09:31:52;96087.47;;;22.20;33.68
54994;BME280;40891;47.242;8.648;2023-02-22T09:34:20;96090.13;;;22.31;32.80
54994;BME280;40891;47.242;8.648;2023-02-22T09:36:47;96075.78;;;23.32;30.56
54994;BME280;40891;47.242;8.648;2023-02-22T09:39:15;96069.06;;;23.95;28.46
54994;BME280;40891;47.242;8.648;2023-02-22T09:47:03;96068.63;;;25.49;27.13
54994;BME280;40891;47.242;8.648;2023-02-22T09:49:43;96067.31;;;25.01;27.19
54994;BME280;40891;47.242;8.648;2023-02-22T09:52:22;96065.88;;;24.46;27.13
54994;BME280;40891;47.242;8.648;2023-02-22T09:55:00;96067.34;;;24.26;27.39
54994;BME280;40891;47.242;8.648;2023-02-22T09:57:40;96083.53;;;22.42;29.70
54994;BME280;40891;47.242;8.648;2023-02-22T10:00:30;96093.81;;;19.98;34.01
54994;BME280;40891;47.242;8.648;2023-02-22T10:03:26;96093.06;;;19.34;34.05
54994;BME280;40891;47.242;8.648;2023-02-22T10:06:03;96083.75;;;21.02;32.12
54994;BME280;40891;47.242;8.648;2023-02-22T10:08:35;96076.16;;;22.02;29.60
54994;BME280;40891;47.242;8.648;2023-02-22T10:16:33;96073.69;;;21.07;30.59
54994;BME280;40891;47.242;8.648;2023-02-22T10:27:21;96063.19;;;22.57;29.37
54994;BME280;40891;47.242;8.648;2023-02-22T10:32:31;96049.56;;;25.64;25.27
54994;BME280;40891;47.242;8.648;2023-02-22T10:35:00;96045.38;;;26.75;23.17
54994;BME280;40891;47.242;8.648;2023-02-22T10:37:32;96047.81;;;27.39;23.45
54994;BME280;40891;47.242;8.648;2023-02-22T10:40:12;96045.38;;;28.05;22.28
54994;BME280;40891;47.242;8.648;2023-02-22T10:42:38;96048.81;;;28.04;21.99
54994;BME280;40891;47.242;8.648;2023-02-22T10:45:04;96036.75;;;29.44;20.96
54994;BME280;40891;47.242;8.648;2023-02-22T10:47:31;96044.28;;;28.65;21.66
54994;BME280;40891;47.242;8.648;2023-02-22T10:49:59;96042.06;;;28.81;21.49
54994;BME280;40891;47.242;8.648;2023-02-22T10:52:28;96037.44;;;29.10;22.23
54994;BME280;40891;47.242;8.648;2023-02-22T10:54:56;96033.69;;;30.27;21.12
54994;BME280;40891;47.242;8.648;2023-02-22T10:57:34;96034.91;;;29.39;21.54
54994;BME280;40891;47.242;8.648;2023-02-22T11:00:13;96038.06;;;29.01;22.03
54994;BME280;40891;47.242;8.648;2023-02-22T11:02:50;96025.94;;;28.93;22.05
54994;BME280;40891;47.242;8.648;2023-02-22T11:05:31;96028.50;;;29.65;21.61
54994;BME280;40891;47.242;8.648;2023-02-22T11:08:27;96022.28;;;30.90;19.84
54994;BME280;40891;47.242;8.648;2023-02-22T11:10:55;96022.63;;;30.68;20.32
54994;BME280;40891;47.242;8.648;2023-02-22T11:13:37;96029.84;;;29.05;21.63
54994;BME280;40891;47.242;8.648;2023-02-22T11:16:19;96021.63;;;28.27;21.68
54994;BME280;40891;47.242;8.648;2023-02-22T11:18:46;96027.13;;;28.58;21.40
54994;BME280;40891;47.242;8.648;2023-02-22T11:21:13;96022.69;;;29.55;21.31
54994;BME280;40891;47.242;8.648;2023-02-22T11:23:46;96016.88;;;29.63;21.05
54994;BME280;40891;47.242;8.648;2023-02-22T11:26:14;96012.72;;;28.73;22.05
54994;BME280;40891;47.242;8.648;2023-02-22T11:28:44;96003.97;;;29.54;21.52
54994;BME280;40891;47.242;8.648;2023-02-22T11:31:25;95999.06;;;29.30;21.74
54994;BME280;40891;47.242;8.648;2023-02-22T11:33:56;95993.88;;;29.88;21.39
54994;BME280;40891;47.242;8.648;2023-02-22T11:36:33;95991.00;;;29.19;22.45
54994;BME280;40891;47.242;8.648;2023-02-22T11:39:03;95990.22;;;28.12;23.33
54994;BME280;40891;47.242;8.648;2023-02-22T11:41:32;95984.44;;;29.02;22.20
54994;BME280;40891;47.242;8.648;2023-02-22T11:44:29;95983.16;;;28.46;22.66
54994;BME280;40891;47.242;8.648;2023-02-22T11:46:56;95977.84;;;29.67;21.60
54994;BME280;40891;47.242;8.648;2023-02-22T11:49:36;95973.72;;;29.78;21.66
54994;BME280;40891;47.242;8.648;2023-02-22T11:52:13;95980.50;;;29.14;22.35
54994;BME280;40891;47.242;8.648;2023-02-22T11:54:43;95976.44;;;28.51;22.28
54994;BME280;40891;47.242;8.648;2023-02-22T12:00:04;95967.53;;;29.99;21.33
54994;BME280;40891;47.242;8.648;2023-02-22T12:03:16;95963.72;;;30.40;21.07
54994;BME280;40891;47.242;8.648;2023-02-22T12:06:01;95970.28;;;28.62;22.66
54994;BME280;40891;47.242;8.648;2023-02-22T12:11:24;95957.16;;;28.26;23.46
54994;BME280;40891;47.242;8.648;2023-02-22T12:16:42;95955.38;;;30.35;21.62
54994;BME280;40891;47.242;8.648;2023-02-22T12:19:26;95952.09;;;31.87;19.62
54994;BME280;40891;47.242;8.648;2023-02-22T12:22:09;95952.66;;;31.38;19.31
54994;BME280;40891;47.242;8.648;2023-02-22T12:24:40;95940.66;;;32.77;18.72
54994;BME280;40891;47.242;8.648;2023-02-22T12:27:17;95939.47;;;32.21;18.65
54994;BME280;40891;47.242;8.648;2023-02-22T12:29:50;95941.56;;;32.30;18.89
54994;BME280;40891;47.242;8.648;2023-02-22T12:37:53;95937.38;;;33.23;18.70
54994;BME280;40891;47.242;8.648;2023-02-22T12:40:31;95935.19;;;33.12;18.53
54994;BME280;40891;47.242;8.648;2023-02-22T12:45:44;95942.72;;;31.48;20.04
54994;BME280;40891;47.242;8.648;2023-02-22T12:51:21;95938.75;;;32.91;19.08
54994;BME280;40891;47.242;8.648;2023-02-22T12:54:07;95937.28;;;32.41;19.75
54994;BME280;40891;47.242;8.648;2023-02-22T12:59:30;95935.53;;;31.02;21.06
54994;BME280;40891;47.242;8.648;2023-02-22T13:02:10;95943.63;;;29.52;22.41
54994;BME280;40891;47.242;8.648;2023-02-22T13:04:37;95935.88;;;30.06;22.61
54994;BME280;40891;47.242;8.648;2023-02-22T13:07:27;95932.69;;;31.02;21.57
54994;BME280;40891;47.242;8.648;2023-02-22T13:20:53;95933.19;;;31.84;20.47
54994;BME280;40891;47.242;8.648;2023-02-22T13:26:05;95925.31;;;31.37;20.92
54994;BME280;40891;47.242;8.648;2023-02-22T13:28:48;95931.47;;;30.95;21.59
54994;BME280;40891;47.242;8.648;2023-02-22T13:34:33;95927.66;;;30.47;21.96
54994;BME280;40891;47.242;8.648;2023-02-22T13:53:21;95918.84;;;28.47;24.97
54994;BME280;40891;47.242;8.648;2023-02-22T13:55:52;95924.97;;;28.92;24.63
54994;BME280;40891;47.242;8.648;2023-02-22T13:58:20;95923.03;;;28.95;24.18
54994;BME280;40891;47.242;8.648;2023-02-22T14:00:53;95921.47;;;28.60;24.30
54994;BME280;40891;47.242;8.648;2023-02-22T14:03:34;95926.69;;;28.21;24.94
54994;BME280;40891;47.242;8.648;2023-02-22T14:06:05;95927.47;;;27.35;26.21
54994;BME280;40891;47.242;8.648;2023-02-22T14:10:59;95930.88;;;27.48;26.01
54994;BME280;40891;47.242;8.648;2023-02-22T14:13:29;95922.25;;;27.96;25.00
54994;BME280;40891;47.242;8.648;2023-02-22T14:24:15;95916.00;;;29.30;23.84
54994;BME280;40891;47.242;8.648;2023-02-22T14:26:57;95918.63;;;28.77;23.50
54994;BME280;40891;47.242;8.648;2023-02-22T14:29:23;95930.25;;;26.65;26.21
54994;BME280;40891;47.242;8.648;2023-02-22T14:36:57;95923.78;;;26.26;27.21
54994;BME280;40891;47.242;8.648;2023-02-22T14:39:31;95930.25;;;25.53;28.13
54994;BME280;40891;47.242;8.648;2023-02-22T14:42:05;95923.00;;;24.53;29.64
54994;BME280;40891;47.242;8.648;2023-02-22T14:44:52;95927.13;;;24.23;30.29
54994;BME280;40891;47.242;8.648;2023-02-22T14:47:23;95921.22;;;24.42;30.16
54994;BME280;40891;47.242;8.648;2023-02-22T14:49:56;95928.94;;;23.59;31.09
54994;BME280;40891;47.242;8.648;2023-02-22T14:52:28;95936.00;;;23.06;32.04
54994;BME280;40891;47.242;8.648;2023-02-22T14:55:17;95939.03;;;21.79;34.30
54994;BME280;40891;47.242;8.648;2023-02-22T14:57:53;95946.19;;;21.48;35.55
54994;BME280;40891;47.242;8.648;2023-02-22T15:00:35;95941.56;;;21.63;34.19
54994;BME280;40891;47.242;8.648;2023-02-22T15:03:01;95945.75;;;21.01;36.09
54994;BME280;40891;47.242;8.648;2023-02-22T15:05:33;95937.97;;;21.63;35.15
54994;BME280;40891;47.242;8.648;2023-02-22T15:08:05;95946.41;;;21.31;35.73
54994;BME280;40891;47.242;8.648;2023-02-22T15:10:45;95944.25;;;21.19;35.73
54994;BME280;40891;47.242;8.648;2023-02-22T15:13:18;95949.91;;;20.52;36.91
54994;BME280;40891;47.242;8.648;2023-02-22T15:15:46;95950.88;;;19.71;38.20
54994;BME280;40891;47.242;8.648;2023-02-22T15:18:21;95949.97;;;18.99;40.27